Airfield :
LOGIN :

Register | Disclaimer

   EN    FR    IT 

 










Legend :    VFR   Marginal VFR   IFR   Intensive IFR   Very Intensive IFR
Visi :
Ceiling :
>= 8 km
>= 3000ft
5 to 8 km
1000 to 3000 ft
1500m to 5 km
500 to 1000 ft
800 to 1500m
200 to 500 ft
< 800m
< 200 ft
Symbols :   Thunderstorms  Fog  Heavy snow  Heavy precipitations  Wind > 20 kt
SIGMETs :     Misc.  Thunderstorms  Icing  Turbulence  Mountain Waves  Volcanic Ashes






- Airport Elevation : 74 ft
- IATA code : LRH


LFBH - La Rochelle Ile de Ré

CURRENT METAR :
  • 101330Z AUTO 18011KT 9999 OVC029 10/06 Q1024 TEMPO 17015G25KT

EXPIRED METARs :
  • 101300Z AUTO 18011KT 9999 OVC030 10/06 Q1025 TEMPO 17015G25KT
  • 101230Z AUTO 17011KT 9999 BKN029 10/06 Q1025 TEMPO 17015G25KT
  • 101200Z AUTO 18012KT 9999 OVC033 10/05 Q1026 TEMPO 17015G25KT
  • 101130Z AUTO 18011KT 9999 BKN034 OVC220 10/05 Q1027 TEMPO 17015G25KT
  • 101100Z AUTO 18011KT 9999 SCT034 SCT180 OVC210 09/05 Q1027 TEMPO 17015G25KT

TAF TAF LFBH
Valid from the 10 at 12:00 until the 11 at 12:00 UTC


101100Z 1012/1112 18010KT 9999 BKN030
BECMG 1012/1013 CAVOK
TEMPO 1012/1020 17015G25KT
TEMPO 1013/1016 BKN015
BECMG 1020/1022 21015G25KT -RA OVC030
BECMG 1101/1103 32010KT
TEMPO 1101/1104 4000 RA BKN008 OVC025
BECMG 1104/1106 26007KT CAVOK
ATIS : +33 5 46 00 13 92



MET'MAP, your aeronautical weather chart ! - Copyright ORBIFLY December 2007 - Disclaimer

ORBIFLY MET'MAP TEAM :

Programming & Development : Alexandra Zaïnal
Concept & original design : Baudouin d'Aumeries
Assistance for programming : Marc-Olivier Méhu
Technical & hardware support : Manuel Goepfert

Contact : metmap@orbifly.com




SOURCES & CREDITS :

   NOAA